ADDS METAR Data INFO
IDs: Format: Raw Decoded Include TAF

Data at: 0354 UTC 20 Feb 2018

KELK 200335Z AUTO 05004KT 10SM SCT110 05/02 A2968 RMK AO2 T00480020
KELK 200315Z AUTO 03007KT 10SM SCT110 05/02 A2969 RMK AO2 T00510023
KELK 200255Z AUTO 04007KT 10SM CLR 05/03 A2969 RMK AO2 T00540026
KELK 200235Z AUTO 07007KT 10SM SCT120 06/02 A2968 RMK AO2 LTG DSNT E AND SE T00550024
KELK 200215Z AUTO 07006KT 10SM SCT120 07/03 A2968 RMK AO2 LTG DSNT E AND SE T00650032
KELK 200155Z AUTO 03010KT 10SM SCT017 SCT037 SCT110 06/03 A2968 RMK AO2 T00620025
KELK 200135Z AUTO 35009KT 10SM CLR 07/03 A2969 RMK AO2 T00660030
KELK 200115Z AUTO 07013KT 10SM SCT120 07/03 A2968 RMK AO2 LTG DSNT NW T00670025
KELK 200055Z AUTO 09017G21KT 10SM SCT120 07/03 A2965 RMK AO2 T00680025
KELK 200035Z AUTO 07013KT 10SM SCT075 SCT095 SCT110 07/03 A2968 RMK AO2 T00740030
KELK 200015Z AUTO 05009G15KT 10SM SCT075 SCT095 BKN110 08/04 A2970 RMK AO2 T00780036
KELK 192355Z AUTO 07010KT 10SM SCT060 SCT070 SCT085 08/03 A2969 RMK AO2 T00830030 10219 20083
KELK 192335Z AUTO 06010G14KT 10SM CLR 09/03 A2968 RMK AO2 T00850030
KELK 192315Z AUTO 07008KT 10SM CLR 09/03 A2968 RMK AO2 T00910034
KELK 192255Z AUTO 06010G15KT 10SM CLR 10/03 A2968 RMK AO2 T00960031
KELK 192235Z AUTO 06008KT 10SM CLR 10/03 A2968 RMK AO2 T01000033
KELK 192215Z AUTO 05010KT 10SM CLR 10/03 A2968 RMK AO2 T00990025
KELK 192155Z AUTO 05010KT 10SM CLR 10/03 A2968 RMK AO2 T01030028
KELK 192135Z AUTO 06010KT 10SM CLR 10/03 A2968 RMK AO2 LTG DSNT SE T01040030
KELK 192115Z AUTO 06011KT 10SM CLR 11/03 A2969 RMK AO2 LTG DSNT E AND SE T01100026
KELK 192055Z AUTO 04011KT 10SM CLR 11/02 A2969 RMK AO2 T01080024
KELK 192035Z AUTO 03013G16KT 10SM CLR 11/02 A2970 RMK AO2 T01110024
KELK 192015Z AUTO 02011KT 10SM CLR 11/03 A2971 RMK AO2 T01100025
KELK 191955Z AUTO 01012G16KT 10SM CLR 11/02 A2971 RMK AO2 T01140024
KELK 191935Z AUTO 02014KT 10SM CLR 12/03 A2971 RMK AO2 T01150025
KELK 191915Z AUTO 01013KT 10SM CLR 12/03 A2971 RMK AO2 T01170029
KELK 191855Z AUTO 36013KT 10SM SCT029 12/03 A2972 RMK AO2 T01220034
KELK 191835Z AUTO 02012KT 10SM BKN029 BKN041 13/05 A2973 RMK AO2 T01270045
KELK 191815Z AUTO 36018KT 10SM SCT029 SCT100 16/06 A2972 RMK AO2 T01550055
KELK 191755Z AUTO 20012G16KT 10SM CLR 21/14 A2971 RMK AO2 T02140137 10214 20145
KELK 191735Z AUTO 20012KT 10SM CLR 20/14 A2971 RMK AO2 T01990139
KELK 191715Z AUTO 19011G16KT 10SM CLR 20/14 A2972 RMK AO2 T02010138
KELK 191655Z AUTO 20011KT 10SM SCT012 SCT120 20/14 A2971 RMK AO2 T01960141
KELK 191635Z AUTO 20013KT 10SM BKN012 OVC120 19/15 A2972 RMK AO2 T01880145
KELK 191615Z AUTO 20014G17KT 10SM OVC010 17/15 A2973 RMK AO2 T01730145
KELK 191555Z AUTO 20013KT 10SM OVC010 17/15 A2973 RMK AO2 T01720146
KELK 191535Z AUTO 20014KT 10SM BKN010 OVC016 17/15 A2973 RMK AO2 T01660145
KELK 191515Z AUTO 21011KT 10SM BKN008 OVC016 17/15 A2973 RMK AO2 T01650148
KELK 191455Z AUTO 20013KT 10SM OVC006 16/15 A2972 RMK AO2 T01600147
KELK 191435Z AUTO 20013G18KT 10SM OVC006 16/15 A2972 RMK AO2 T01560145
KELK 191415Z AUTO 20012KT 7SM OVC006 15/15 A2970 RMK AO2 T01530145
KELK 191355Z AUTO 20013G17KT 7SM OVC006 15/14 A2968 RMK AO2 T01510143
KELK 191335Z AUTO 19015KT 7SM OVC006 15/14 A2968 RMK AO2 T01510143
KELK 191315Z AUTO 20013KT 7SM OVC008 15/14 A2968 RMK AO2 T01500142
KELK 191255Z AUTO 20013G19KT 10SM OVC008 15/14 A2967 RMK AO2 T01480141
KELK 191235Z AUTO 19011KT 7SM BKN008 BKN110 15/14 A2967 RMK AO2 T01450140
KELK 191215Z AUTO 19009KT 10SM SCT010 SCT120 15/14 A2967 RMK AO2 T01450138
KELK 191155Z AUTO 18008KT 10SM CLR 15/14 A2967 RMK AO2 T01490138 10180 20149
KELK 191135Z AUTO 19010KT 10SM CLR 15/14 A2967 RMK AO2 T01520139
KELK 191115Z AUTO 19012G18KT 10SM SCT110 16/14 A2967 RMK AO2 T01560140
KELK 191055Z AUTO 19012G17KT 10SM BKN100 16/14 A2968 RMK AO2 T01580140
KELK 191035Z AUTO 20012KT 10SM BKN100 BKN120 16/14 A2968 RMK AO2 T01570140
KELK 191015Z AUTO 19011KT 10SM SCT100 16/14 A2967 RMK AO2 T01550140
KELK 190955Z AUTO 18009KT 10SM SCT100 SCT120 15/14 A2968 RMK AO2 T01500137
KELK 190935Z AUTO 19009KT 10SM SCT100 SCT120 15/14 A2967 RMK AO2 T01500137
KELK 190915Z AUTO 19008KT 10SM CLR 15/14 A2968 RMK AO2 T01530139
KELK 190855Z AUTO 19009KT 10SM CLR 15/14 A2967 RMK AO2 T01530139
KELK 190835Z AUTO 19011KT 10SM SCT022 SCT030 16/14 A2967 RMK AO2 T01560141
KELK 190815Z AUTO 18011KT 10SM SCT022 SCT030 16/14 A2967 RMK AO2 T01560142
KELK 190755Z AUTO 18012KT 10SM SCT022 16/14 A2966 RMK AO2 T01570143
KELK 190735Z AUTO 19013G17KT 10SM CLR 16/14 A2966 RMK AO2 T01600144
KELK 190715Z AUTO 18013G18KT 10SM CLR 16/15 A2966 RMK AO2 T01630145
KELK 190655Z AUTO 19013KT 10SM SCT024 17/15 A2966 RMK AO2 T01700146
KELK 190635Z AUTO 19015G18KT 10SM BKN024 17/15 A2967 RMK AO2 T01740147
KELK 190615Z AUTO 19015G21KT 10SM CLR 18/15 A2967 RMK AO2 T01770147
KELK 190555Z AUTO 19018G23KT 10SM CLR 18/15 A2967 RMK AO2 T01800148 10181 20134 402070013
KELK 190535Z AUTO 19016G24KT 10SM CLR 18/15 A2967 RMK AO2 T01800147
KELK 190515Z AUTO 19018KT 10SM CLR 18/15 A2968 RMK AO2 T01760147
KELK 190455Z AUTO 19018G27KT 10SM CLR 18/15 A2967 RMK AO2 T01750147
KELK 190435Z AUTO 19018G26KT 10SM CLR 17/15 A2967 RMK AO2 T01740147
KELK 190415Z AUTO 19018G24KT 10SM CLR 17/15 A2967 RMK AO2 T01710148
KELK 190355Z AUTO 17010G15KT 10SM CLR 14/13 A2967 RMK AO2 T01400130
KELK 190340Z AUTO 17011KT 10SM CLR 14/12 A2967 RMK AO2 T01350123
KELK 190315Z AUTO 17012G17KT 10SM CLR 14/12 A2967 RMK AO2 T01350121
KELK 190255Z AUTO 17015G18KT 10SM CLR 14/12 A2966 RMK AO2 T01350118
KELK 190235Z AUTO 17016G23KT 10SM CLR 14/12 A2966 RMK AO2 T01350117
KELK 190215Z AUTO 16016G22KT 10SM CLR 14/12 A2966 RMK AO2 T01360115
KELK 190155Z AUTO 16016G21KT 10SM CLR 14/11 A2966 RMK AO2 T01400114
KELK 190135Z AUTO 16015G20KT 10SM CLR 15/12 A2966 RMK AO2 T01450115
KELK 190115Z AUTO 15013G18KT 10SM CLR 15/11 A2966 RMK AO2 T01450112
KELK 190055Z AUTO 15012G17KT 10SM CLR 15/11 A2966 RMK AO2 T01450108
KELK 190035Z AUTO 15014G19KT 10SM CLR 15/11 A2967 RMK AO2 T01500106
KELK 190015Z AUTO 15015KT 10SM CLR 16/10 A2968 RMK AO2 T01560104
KELK 182355Z AUTO 15015G21KT 10SM CLR 17/10 A2968 RMK AO2 T01670100 10207 20110
KELK 182335Z AUTO 17017G25KT 10SM CLR 18/10 A2968 RMK AO2 T01800101
KELK 182315Z AUTO 16020G26KT 10SM CLR 19/10 A2968 RMK AO2 T01860100
KELK 182255Z AUTO 17018G26KT 10SM CLR 20/10 A2969 RMK AO2 T01960100
KELK 182235Z AUTO 18017G27KT 10SM CLR 21/10 A2970 RMK AO2 T02050098
KELK 182215Z AUTO 18019G26KT 10SM CLR 20/10 A2970 RMK AO2 T01960097
KELK 182155Z AUTO 17017G23KT 10SM CLR 19/10 A2971 RMK AO2 T01930096
KELK 182135Z AUTO 18019G26KT 10SM CLR 19/10 A2972 RMK AO2 T01870096
KELK 182115Z AUTO 19018G23KT 10SM CLR 18/09 A2973 RMK AO2 T01820092
KELK 182055Z AUTO 19016G25KT 10SM CLR 18/09 A2974 RMK AO2 T01760088
KELK 182035Z AUTO 19018G23KT 10SM SCT027 18/09 A2976 RMK AO2 T01760086
KELK 182015Z AUTO 19020G26KT 10SM SCT021 SCT027 16/08 A2978 RMK AO2 T01640081
KELK 181955Z AUTO 19018G24KT 10SM OVC021 16/08 A2980 RMK AO2 T01550081
KELK 181935Z AUTO 19015G19KT 10SM OVC019 13/07 A2982 RMK AO2 T01330073
KELK 181915Z AUTO 18016G23KT 10SM OVC019 12/07 A2983 RMK AO2 T01230069
KELK 181855Z AUTO 19013G23KT 10SM OVC019 12/06 A2985 RMK AO2 T01150064
KELK 181835Z AUTO 19014G22KT 10SM OVC019 12/06 A2987 RMK AO2 T01150061
KELK 181815Z AUTO 19021G28KT 10SM OVC021 11/06 A2989 RMK AO2 T01120058
KELK 181755Z AUTO 19019G25KT 10SM OVC023 11/06 A2990 RMK AO2 T01110060 10111 20013
KELK 181735Z AUTO 19017G25KT 10SM OVC027 11/06 A2993 RMK AO2 T01050059
KELK 181715Z AUTO 18019G25KT 10SM OVC027 10/06 A2993 RMK AO2 T01030059
KELK 181655Z AUTO 19020G28KT 10SM SCT013 OVC027 10/06 A2994 RMK AO2 T00970058
KELK 181635Z AUTO 19018G24KT 10SM BKN013 OVC028 10/06 A2996 RMK AO2 T00950059
KELK 181615Z AUTO 18016G19KT 10SM SCT013 BKN028 09/05 A2996 RMK AO2 T00860052
KELK 181555Z AUTO 18016KT 10SM CLR 07/04 A2996 RMK AO2 T00730042